Time;durP1;ratioP1;P1;durP2;ratioP2;P2;SDS_P1;SDS_P2;PMS_P1;PMS_P2;Temp;Humidity;BMP_temperature;BMP_pressure;BME280_temperature;BME280_humidity;BME280_pressure;Samples;Min_cycle;Max_cycle;Signal;HPM_P1;HPM_P2
2021/07/01 00:00:35;;;;;;;8.88;1.10;;;;;;;;;;5075338;28;20035;-73
2021/07/01 00:03:02;;;;;;;4.45;1.38;;;;;;;;;;5075117;28;20020;-73
2021/07/01 00:05:28;;;;;;;4.20;1.00;;;;;;;;;;5075455;28;20412;-73
2021/07/01 00:07:54;;;;;;;5.70;0.93;;;;;;;;;;5075326;28;20024;-73
2021/07/01 00:10:22;;;;;;;2.63;0.90;;;;;;;;;;5075147;28;20079;-73
2021/07/01 00:12:48;;;;;;;5.93;1.10;;;;;;;;;;5075230;28;20397;-74
2021/07/01 00:15:16;;;;;;;5.40;1.20;;;;;;;;;;5075286;28;20028;-73
2021/07/01 00:17:42;;;;;;;3.72;1.05;;;;;;;;;;5075253;28;20047;-73
2021/07/01 00:20:09;;;;;;;3.05;0.82;;;;;;;;;;5075252;28;20024;-74
2021/07/01 00:22:35;;;;;;;2.92;1.00;;;;;;;;;;5074776;28;20530;-74
2021/07/01 00:25:01;;;;;;;5.00;1.50;;;;;;;;;;5074902;28;20461;-73
2021/07/01 00:27:28;;;;;;;2.97;0.88;;;;;;;;;;5075187;28;20063;-73
2021/07/01 00:29:55;;;;;;;6.10;1.45;;;;;;;;;;5074893;28;20032;-73
2021/07/01 00:32:21;;;;;;;8.30;1.10;;;;;;;;;;5074635;28;20028;-73
2021/07/01 00:34:47;;;;;;;5.32;1.10;;;;;;;;;;5074998;28;20141;-73
2021/07/01 00:37:13;;;;;;;6.38;0.90;;;;;;;;;;5074758;28;20031;-73
2021/07/01 00:39:39;;;;;;;3.63;0.95;;;;;;;;;;5074740;28;20021;-73
2021/07/01 00:42:05;;;;;;;5.13;0.90;;;;;;;;;;5074746;28;20078;-73
2021/07/01 00:44:31;;;;;;;5.20;1.10;;;;;;;;;;5074368;28;20148;-73
2021/07/01 00:46:57;;;;;;;3.28;0.90;;;;;;;;;;5074783;28;20538;-73
2021/07/01 00:49:24;;;;;;;6.55;0.95;;;;;;;;;;5073464;28;20074;-73
2021/07/01 00:51:50;;;;;;;3.38;0.98;;;;;;;;;;5074319;28;20024;-73
2021/07/01 00:54:17;;;;;;;7.07;0.90;;;;;;;;;;5074188;28;20021;-73
2021/07/01 00:56:43;;;;;;;2.85;0.70;;;;;;;;;;5073936;28;20025;-73
2021/07/01 00:59:09;;;;;;;2.42;0.80;;;;;;;;;;5072034;28;20110;-73
2021/07/01 01:01:35;;;;;;;5.07;1.15;;;;;;;;;;5070259;28;20601;-74
2021/07/01 01:04:01;;;;;;;4.25;1.10;;;;;;;;;;5071732;28;20074;-73
2021/07/01 01:06:27;;;;;;;6.95;1.45;;;;;;;;;;5073893;28;20028;-73
2021/07/01 01:08:54;;;;;;;3.72;0.95;;;;;;;;;;5073960;28;20430;-73
2021/07/01 01:11:24;;;;;;;6.65;1.00;;;;;;;;;;5074001;28;20097;-73
2021/07/01 01:13:51;;;;;;;4.40;0.90;;;;;;;;;;5073712;28;20021;-73
2021/07/01 01:16:17;;;;;;;3.55;1.00;;;;;;;;;;5073953;28;20468;-73
2021/07/01 01:18:43;;;;;;;4.30;1.10;;;;;;;;;;5073793;28;20032;-73
2021/07/01 01:21:13;;;;;;;4.95;1.00;;;;;;;;;;5073332;28;20144;-73
2021/07/01 01:23:39;;;;;;;5.35;1.08;;;;;;;;;;5073573;28;20098;-73
2021/07/01 01:26:05;;;;;;;4.88;1.15;;;;;;;;;;5073490;28;20021;-73
2021/07/01 01:28:31;;;;;;;6.18;1.20;;;;;;;;;;5073463;28;20422;-73
2021/07/01 01:30:57;;;;;;;3.70;1.15;;;;;;;;;;5073824;28;20068;-73
2021/07/01 01:33:24;;;;;;;7.00;1.10;;;;;;;;;;5072570;28;20094;-73
2021/07/01 01:35:50;;;;;;;9.02;1.00;;;;;;;;;;5073120;28;20031;-73
2021/07/01 01:38:17;;;;;;;4.28;1.05;;;;;;;;;;5073338;28;20017;-73
2021/07/01 01:40:44;;;;;;;9.13;1.17;;;;;;;;;;5073252;28;20071;-73
2021/07/01 01:43:13;;;;;;;3.15;1.00;;;;;;;;;;5073258;28;20135;-73
2021/07/01 01:45:39;;;;;;;6.55;1.00;;;;;;;;;;5073249;28;20100;-73
2021/07/01 01:48:06;;;;;;;8.02;0.95;;;;;;;;;;5073452;28;20028;-73
2021/07/01 01:50:32;;;;;;;4.75;1.02;;;;;;;;;;5072802;28;20108;-73
2021/07/01 01:52:58;;;;;;;5.50;1.15;;;;;;;;;;5073052;28;20029;-73
2021/07/01 01:55:24;;;;;;;4.88;0.70;;;;;;;;;;5073310;28;20024;-73
2021/07/01 01:57:51;;;;;;;3.88;0.68;;;;;;;;;;5072990;28;20467;-73
2021/07/01 02:00:19;;;;;;;2.28;0.90;;;;;;;;;;5072934;28;20028;-73
2021/07/01 02:02:45;;;;;;;5.72;1.00;;;;;;;;;;5072835;28;20494;-73
2021/07/01 02:05:12;;;;;;;3.47;0.80;;;;;;;;;;5073022;28;20025;-73
2021/07/01 02:07:38;;;;;;;10.02;1.15;;;;;;;;;;5072875;28;20021;-73
2021/07/01 02:10:05;;;;;;;1.73;0.90;;;;;;;;;;5071983;28;20027;-73
2021/07/01 02:12:32;;;;;;;2.72;0.98;;;;;;;;;;5073039;28;20032;-73
2021/07/01 02:14:58;;;;;;;6.85;1.52;;;;;;;;;;5072988;28;20036;-73
2021/07/01 02:17:24;;;;;;;7.40;1.00;;;;;;;;;;5073141;28;20035;-73
2021/07/01 02:19:51;;;;;;;6.25;1.20;;;;;;;;;;5072955;28;20017;-73
2021/07/01 02:22:17;;;;;;;5.70;1.40;;;;;;;;;;5073015;28;20035;-73
2021/07/01 02:24:43;;;;;;;5.60;1.30;;;;;;;;;;5072986;28;20088;-73
2021/07/01 02:27:10;;;;;;;5.45;1.38;;;;;;;;;;5072840;28;20492;-73
2021/07/01 02:29:36;;;;;;;7.10;1.45;;;;;;;;;;5072861;28;20028;-73
2021/07/01 02:32:03;;;;;;;4.22;1.25;;;;;;;;;;5072877;28;20113;-73
2021/07/01 02:34:29;;;;;;;5.38;1.30;;;;;;;;;;5072642;28;20017;-73
2021/07/01 02:36:55;;;;;;;6.88;1.35;;;;;;;;;;5072568;28;20472;-73
2021/07/01 02:39:21;;;;;;;5.25;1.10;;;;;;;;;;5072861;28;20013;-73
2021/07/01 02:41:47;;;;;;;4.50;1.20;;;;;;;;;;5072874;28;20031;-73
2021/07/01 02:44:13;;;;;;;3.88;1.10;;;;;;;;;;5072540;28;20049;-73
2021/07/01 02:46:39;;;;;;;1.80;1.02;;;;;;;;;;5072745;28;20032;-73
2021/07/01 02:49:05;;;;;;;5.95;1.25;;;;;;;;;;5072409;28;20546;-74
2021/07/01 02:51:31;;;;;;;8.68;1.58;;;;;;;;;;5072485;28;20089;-73
2021/07/01 02:53:57;;;;;;;5.15;1.20;;;;;;;;;;5072677;28;20674;-73
2021/07/01 02:56:23;;;;;;;7.40;1.10;;;;;;;;;;5072460;28;20029;-73
2021/07/01 02:58:50;;;;;;;5.63;1.20;;;;;;;;;;5072700;28;20023;-73
2021/07/01 03:01:16;;;;;;;5.35;1.20;;;;;;;;;;5072470;28;20384;-73
2021/07/01 03:03:42;;;;;;;8.82;1.20;;;;;;;;;;5072389;28;20017;-73
2021/07/01 03:06:08;;;;;;;3.95;1.23;;;;;;;;;;5072466;28;20052;-73
2021/07/01 03:08:34;;;;;;;3.88;1.13;;;;;;;;;;5071693;28;20021;-73
2021/07/01 03:11:00;;;;;;;3.53;0.90;;;;;;;;;;5069685;28;20488;-73
2021/07/01 03:13:26;;;;;;;3.70;1.10;;;;;;;;;;5069592;28;20030;-73
2021/07/01 03:15:52;;;;;;;4.88;1.08;;;;;;;;;;5072173;28;20546;-73
2021/07/01 03:18:18;;;;;;;5.90;1.10;;;;;;;;;;5072517;28;20055;-73
2021/07/01 03:20:44;;;;;;;2.72;0.73;;;;;;;;;;5074228;28;20553;-73
2021/07/01 03:23:10;;;;;;;4.43;1.42;;;;;;;;;;5076041;28;20107;-73
2021/07/01 03:25:36;;;;;;;2.58;1.10;;;;;;;;;;5074877;28;20111;-73
2021/07/01 03:28:02;;;;;;;3.38;1.10;;;;;;;;;;5075932;28;20025;-73
2021/07/01 03:30:28;;;;;;;4.07;0.90;;;;;;;;;;5075794;28;20040;-73
2021/07/01 03:32:54;;;;;;;4.78;0.90;;;;;;;;;;5074717;28;20495;-73
2021/07/01 03:35:20;;;;;;;3.38;1.00;;;;;;;;;;5076048;28;20024;-73
2021/07/01 03:37:46;;;;;;;3.80;1.00;;;;;;;;;;5076115;28;20032;-73
2021/07/01 03:40:13;;;;;;;5.57;1.00;;;;;;;;;;5075841;28;20504;-73
2021/07/01 03:42:39;;;;;;;2.58;0.80;;;;;;;;;;5075497;28;20020;-73
2021/07/01 03:45:05;;;;;;;6.65;0.98;;;;;;;;;;5075767;28;20058;-73
2021/07/01 03:47:31;;;;;;;2.70;1.10;;;;;;;;;;5075778;28;20371;-73
2021/07/01 03:49:57;;;;;;;7.68;1.50;;;;;;;;;;5075850;28;20028;-73
2021/07/01 03:52:23;;;;;;;5.07;1.70;;;;;;;;;;5075270;28;20145;-73
2021/07/01 03:54:49;;;;;;;4.07;1.63;;;;;;;;;;5075412;28;20025;-73
2021/07/01 03:57:15;;;;;;;5.28;1.60;;;;;;;;;;5075376;28;20025;-73
2021/07/01 03:59:41;;;;;;;4.05;1.27;;;;;;;;;;5074223;28;20025;-73
2021/07/01 04:02:07;;;;;;;4.07;1.05;;;;;;;;;;5075351;28;20036;-72
2021/07/01 04:04:33;;;;;;;5.47;1.98;;;;;;;;;;5075457;28;20028;-73
2021/07/01 04:06:59;;;;;;;4.88;1.00;;;;;;;;;;5075485;28;20025;-73
2021/07/01 04:09:25;;;;;;;3.80;0.80;;;;;;;;;;5075050;28;20031;-73
2021/07/01 04:11:51;;;;;;;4.35;0.93;;;;;;;;;;5075091;28;20051;-72
2021/07/01 04:14:18;;;;;;;6.78;1.15;;;;;;;;;;5074882;28;20047;-72
2021/07/01 04:16:45;;;;;;;3.70;1.02;;;;;;;;;;5075100;28;20511;-73
2021/07/01 04:19:12;;;;;;;5.13;0.90;;;;;;;;;;5075198;28;20017;-73
2021/07/01 04:21:38;;;;;;;3.05;1.05;;;;;;;;;;5074924;28;20028;-73
2021/07/01 04:24:04;;;;;;;3.92;1.00;;;;;;;;;;5074829;28;20432;-73
2021/07/01 04:26:30;;;;;;;4.07;0.90;;;;;;;;;;5073516;28;20380;-73
2021/07/01 04:28:56;;;;;;;2.78;0.80;;;;;;;;;;5074609;28;20017;-73
2021/07/01 04:31:22;;;;;;;6.28;1.63;;;;;;;;;;5074335;28;20036;-73
2021/07/01 04:33:48;;;;;;;3.63;1.05;;;;;;;;;;5073366;28;20023;-72
2021/07/01 04:36:14;;;;;;;5.20;1.33;;;;;;;;;;5074902;28;20052;-72
2021/07/01 04:38:41;;;;;;;5.90;1.20;;;;;;;;;;5074748;28;20021;-73
2021/07/01 04:41:07;;;;;;;6.70;0.95;;;;;;;;;;5074681;28;20477;-72
2021/07/01 04:43:33;;;;;;;2.72;0.90;;;;;;;;;;5074133;28;20067;-73
2021/07/01 04:45:59;;;;;;;5.30;1.00;;;;;;;;;;5074397;28;20035;-73
2021/07/01 04:48:25;;;;;;;4.82;1.58;;;;;;;;;;5074254;28;20028;-73
2021/07/01 04:50:52;;;;;;;2.67;0.80;;;;;;;;;;5073961;28;20484;-73
2021/07/01 04:53:18;;;;;;;5.82;1.30;;;;;;;;;;5074330;28;20408;-73
2021/07/01 04:55:44;;;;;;;6.28;1.40;;;;;;;;;;5074415;28;20029;-73
2021/07/01 04:58:10;;;;;;;4.95;1.40;;;;;;;;;;5074306;28;20024;-73
2021/07/01 05:00:36;;;;;;;3.78;1.00;;;;;;;;;;5074201;28;20472;-73
2021/07/01 05:03:02;;;;;;;7.30;1.20;;;;;;;;;;5074542;28;20364;-73
2021/07/01 05:05:28;;;;;;;5.85;1.00;;;;;;;;;;5074205;28;20409;-73
2021/07/01 05:07:54;;;;;;;5.78;0.75;;;;;;;;;;5074110;28;20036;-73
2021/07/01 05:10:20;;;;;;;4.47;0.73;;;;;;;;;;5073816;28;20082;-73
2021/07/01 05:12:46;;;;;;;6.75;1.15;;;;;;;;;;5072693;28;20029;-73
2021/07/01 05:15:12;;;;;;;4.18;1.10;;;;;;;;;;5073989;28;20033;-73
2021/07/01 05:17:38;;;;;;;1.70;0.77;;;;;;;;;;5074223;28;20036;-73
2021/07/01 05:20:07;;;;;;;3.28;0.80;;;;;;;;;;5073386;28;20016;-73
2021/07/01 05:22:34;;;;;;;5.88;1.25;;;;;;;;;;5072135;28;20029;-73
2021/07/01 05:25:00;;;;;;;4.28;0.80;;;;;;;;;;5072698;28;20043;-73
2021/07/01 05:27:26;;;;;;;4.82;0.93;;;;;;;;;;5072688;28;20031;-73
2021/07/01 05:29:52;;;;;;;7.00;0.80;;;;;;;;;;5073618;28;20586;-73
2021/07/01 05:32:18;;;;;;;4.55;0.80;;;;;;;;;;5074291;28;20090;-73
2021/07/01 05:34:44;;;;;;;2.92;0.70;;;;;;;;;;5074196;28;20100;-73
2021/07/01 05:37:10;;;;;;;4.45;0.90;;;;;;;;;;5073738;28;20028;-73
2021/07/01 05:39:37;;;;;;;5.05;0.85;;;;;;;;;;5074131;28;20373;-73
2021/07/01 05:42:03;;;;;;;7.57;1.00;;;;;;;;;;5074064;28;20021;-73
2021/07/01 05:44:29;;;;;;;4.10;0.88;;;;;;;;;;5072527;28;20049;-73
2021/07/01 05:46:55;;;;;;;4.85;0.80;;;;;;;;;;5073940;28;20377;-73
2021/07/01 05:49:21;;;;;;;6.72;1.00;;;;;;;;;;5073817;28;20032;-73
2021/07/01 05:51:49;;;;;;;3.53;1.00;;;;;;;;;;5073625;28;20040;-73
2021/07/01 05:57:00;;;;;;;8.80;1.10;;;;;;;;;;5073806;28;20442;-73
2021/07/01 05:59:26;;;;;;;5.82;1.30;;;;;;;;;;5073512;28;20017;-73
2021/07/01 06:01:53;;;;;;;7.82;1.23;;;;;;;;;;5073679;28;20469;-73
2021/07/01 06:04:20;;;;;;;5.20;0.85;;;;;;;;;;5073464;28;20023;-73
2021/07/01 06:06:49;;;;;;;4.43;1.10;;;;;;;;;;5073248;28;20063;-74
2021/07/01 06:09:15;;;;;;;7.85;1.20;;;;;;;;;;5073477;28;20082;-73
2021/07/01 06:11:42;;;;;;;7.38;1.00;;;;;;;;;;5073471;28;20389;-73
2021/07/01 06:14:08;;;;;;;4.43;1.15;;;;;;;;;;5073077;28;20530;-73
2021/07/01 06:16:35;;;;;;;12.63;1.02;;;;;;;;;;5073414;28;20032;-73
2021/07/01 06:19:03;;;;;;;3.13;0.75;;;;;;;;;;5073444;28;20035;-74
2021/07/01 06:21:29;;;;;;;1.35;0.70;;;;;;;;;;5073231;28;20495;-73
2021/07/01 06:23:55;;;;;;;3.67;0.70;;;;;;;;;;5073261;28;20024;-74
2021/07/01 06:26:27;;;;;;;3.42;0.80;;;;;;;;;;5073050;28;20024;-73
2021/07/01 06:28:53;;;;;;;1.67;0.80;;;;;;;;;;5072329;28;20074;-73
2021/07/01 06:31:20;;;;;;;4.30;1.10;;;;;;;;;;5072688;28;20032;-72
2021/07/01 07:15:25;;;;;;;5.38;1.33;;;;;;;;;;5111186;27;20168;-71
2021/07/01 07:17:51;;;;;;;17.15;1.98;;;;;;;;;;5111034;28;20061;-71
2021/07/01 07:20:24;;;;;;;19.15;1.77;;;;;;;;;;5111288;28;20395;-71
2021/07/01 07:22:50;;;;;;;7.43;1.20;;;;;;;;;;5110906;28;20035;-72
2021/07/01 07:25:16;;;;;;;3.65;1.20;;;;;;;;;;5110902;28;20465;-69
2021/07/01 07:28:02;;;;;;;8.35;1.38;;;;;;;;;;5111071;28;20032;-71
2021/07/01 07:30:28;;;;;;;12.02;1.30;;;;;;;;;;5109354;28;20019;-71
2021/07/01 07:32:55;;;;;;;5.00;1.15;;;;;;;;;;5110397;28;20051;-71
2021/07/01 07:35:22;;;;;;;3.60;0.93;;;;;;;;;;5110581;28;20455;-71
2021/07/01 07:37:48;;;;;;;5.40;1.02;;;;;;;;;;5110459;28;20028;-72
2021/07/01 07:40:14;;;;;;;40.25;2.50;;;;;;;;;;5110223;28;20023;-71
2021/07/01 07:42:43;;;;;;;9.80;1.20;;;;;;;;;;5110220;28;20054;-72
2021/07/01 07:45:09;;;;;;;6.80;1.30;;;;;;;;;;5110143;28;20077;-72
2021/07/01 07:47:35;;;;;;;8.68;0.90;;;;;;;;;;5110471;28;20027;-71
2021/07/01 07:50:01;;;;;;;11.15;1.30;;;;;;;;;;5110359;28;20024;-72
2021/07/01 07:52:28;;;;;;;5.13;0.90;;;;;;;;;;5110081;28;20023;-72
2021/07/01 07:54:55;;;;;;;8.02;1.27;;;;;;;;;;5110117;28;20111;-72
2021/07/01 07:57:27;;;;;;;4.18;1.20;;;;;;;;;;5109996;28;20545;-72
2021/07/01 07:59:55;;;;;;;6.90;1.10;;;;;;;;;;5110134;28;20103;-72
2021/07/01 08:02:24;;;;;;;10.65;1.10;;;;;;;;;;5109871;28;20051;-72
2021/07/01 08:04:50;;;;;;;3.50;0.82;;;;;;;;;;5108721;28;20391;-72
2021/07/01 08:07:17;;;;;;;6.72;1.13;;;;;;;;;;5110463;28;20073;-72
2021/07/01 08:09:43;;;;;;;4.35;0.90;;;;;;;;;;5109990;28;20023;-72
2021/07/01 08:12:09;;;;;;;8.48;1.00;;;;;;;;;;5109289;28;20032;-72
2021/07/01 08:14:41;;;;;;;5.88;1.33;;;;;;;;;;5107991;28;20054;-72
2021/07/01 08:17:07;;;;;;;7.47;1.27;;;;;;;;;;5108777;28;20134;-71
2021/07/01 08:19:37;;;;;;;7.18;1.27;;;;;;;;;;5106409;28;20024;-72
2021/07/01 08:22:03;;;;;;;5.82;1.20;;;;;;;;;;5108570;28;20030;-72
2021/07/01 08:24:29;;;;;;;2.92;1.00;;;;;;;;;;5108385;28;20077;-72
2021/07/01 08:26:56;;;;;;;7.40;1.08;;;;;;;;;;5095528;28;20087;-71
2021/07/01 08:29:22;;;;;;;3.72;1.25;;;;;;;;;;5096147;28;20106;-70
2021/07/01 08:31:49;;;;;;;3.63;1.20;;;;;;;;;;5096021;28;20442;-69
2021/07/01 08:34:18;;;;;;;3.63;1.20;;;;;;;;;;5095797;28;20032;-71
2021/07/01 08:36:46;;;;;;;5.30;1.40;;;;;;;;;;5095784;28;20017;-69
2021/07/01 08:39:12;;;;;;;6.55;1.58;;;;;;;;;;5094728;28;20038;-70
2021/07/01 08:41:41;;;;;;;6.85;1.20;;;;;;;;;;5095267;28;20020;-70
2021/07/01 08:44:10;;;;;;;8.90;1.40;;;;;;;;;;5095634;28;20063;-70
2021/07/01 08:46:50;;;;;;;3.45;0.95;;;;;;;;;;5095531;28;20016;-70
2021/07/01 08:49:31;;;;;;;6.28;1.08;;;;;;;;;;5095682;28;20024;-69
2021/07/01 08:51:57;;;;;;;5.75;1.30;;;;;;;;;;5095472;28;20158;-70
2021/07/01 08:54:23;;;;;;;5.30;1.25;;;;;;;;;;5095239;28;20156;-70
2021/07/01 08:56:50;;;;;;;15.10;1.60;;;;;;;;;;5095445;28;20024;-70
2021/07/01 08:59:18;;;;;;;4.85;1.27;;;;;;;;;;5095286;28;20028;-70
2021/07/01 09:01:47;;;;;;;5.90;1.27;;;;;;;;;;5095200;28;20024;-70
2021/07/01 09:04:13;;;;;;;6.97;1.20;;;;;;;;;;5095138;28;20038;-71
2021/07/01 09:06:40;;;;;;;4.50;1.10;;;;;;;;;;5095165;28;20099;-71
2021/07/01 09:09:10;;;;;;;6.63;1.40;;;;;;;;;;5095218;28;20039;-71
2021/07/01 09:11:38;;;;;;;8.20;1.33;;;;;;;;;;5094822;28;20036;-70
2021/07/01 09:14:06;;;;;;;6.38;1.20;;;;;;;;;;5095126;28;20048;-69
2021/07/01 09:16:32;;;;;;;8.73;1.23;;;;;;;;;;5094924;28;20021;-68
2021/07/01 09:19:00;;;;;;;9.10;1.38;;;;;;;;;;5093172;28;20040;-69
2021/07/01 09:21:26;;;;;;;6.18;1.23;;;;;;;;;;5093390;28;20022;-69
2021/07/01 09:23:52;;;;;;;4.93;1.20;;;;;;;;;;5093942;28;20081;-69
2021/07/01 09:26:20;;;;;;;5.10;1.65;;;;;;;;;;5093941;28;20020;-69
2021/07/01 09:28:47;;;;;;;11.10;1.65;;;;;;;;;;5094464;28;20028;-68
2021/07/01 09:31:15;;;;;;;5.18;1.13;;;;;;;;;;5094715;28;20016;-71
2021/07/01 09:33:42;;;;;;;5.25;1.40;;;;;;;;;;5094953;28;20028;-71
2021/07/01 09:36:09;;;;;;;10.05;1.52;;;;;;;;;;5094673;28;20385;-71
2021/07/01 09:38:35;;;;;;;14.07;1.30;;;;;;;;;;5094018;28;20468;-70
2021/07/01 09:41:01;;;;;;;19.40;1.95;;;;;;;;;;5094660;28;20047;-70
2021/07/01 09:43:28;;;;;;;19.30;1.95;;;;;;;;;;5094382;28;20077;-70
2021/07/01 09:45:54;;;;;;;10.27;1.38;;;;;;;;;;5094512;28;20050;-70
2021/07/01 09:48:23;;;;;;;16.95;1.48;;;;;;;;;;5093528;28;20477;-71
2021/07/01 09:50:49;;;;;;;8.02;1.70;;;;;;;;;;5094352;28;20476;-71
2021/07/01 09:53:17;;;;;;;8.35;1.52;;;;;;;;;;5093611;28;20111;-70
2021/07/01 09:55:44;;;;;;;11.38;2.20;;;;;;;;;;5094220;28;20052;-71
2021/07/01 09:58:14;;;;;;;9.35;1.42;;;;;;;;;;5094249;28;20028;-71
2021/07/01 10:00:40;;;;;;;7.20;1.52;;;;;;;;;;5094199;28;20535;-71
2021/07/01 10:03:07;;;;;;;12.27;1.90;;;;;;;;;;5093889;28;20028;-71
2021/07/01 10:05:34;;;;;;;8.93;2.00;;;;;;;;;;5094206;28;20028;-70
2021/07/01 10:08:01;;;;;;;15.93;2.95;;;;;;;;;;5093963;28;20026;-70
2021/07/01 10:10:27;;;;;;;19.90;2.45;;;;;;;;;;5093964;28;20488;-70
2021/07/01 10:12:57;;;;;;;12.38;1.95;;;;;;;;;;5093523;28;20024;-69
2021/07/01 10:15:26;;;;;;;9.40;2.05;;;;;;;;;;5093902;28;20066;-70
2021/07/01 10:18:02;;;;;;;9.10;1.48;;;;;;;;;;5093891;28;20465;-70
2021/07/01 10:20:32;;;;;;;9.63;1.77;;;;;;;;;;5093585;28;20066;-70
2021/07/01 10:22:59;;;;;;;9.88;1.85;;;;;;;;;;5093711;28;20019;-70
2021/07/01 10:25:34;;;;;;;11.18;2.05;;;;;;;;;;5093988;28;20039;-71
2021/07/01 10:28:10;;;;;;;9.30;2.20;;;;;;;;;;5093914;28;20024;-70
2021/07/01 10:30:36;;;;;;;8.50;1.90;;;;;;;;;;5093935;28;20431;-70
2021/07/01 10:33:02;;;;;;;10.07;1.75;;;;;;;;;;5093521;28;20103;-70
2021/07/01 10:35:28;;;;;;;7.22;1.80;;;;;;;;;;5093847;28;20365;-70
2021/07/01 10:37:58;;;;;;;7.63;1.52;;;;;;;;;;5093614;28;20032;-70
2021/07/01 10:40:25;;;;;;;10.10;1.73;;;;;;;;;;5093685;28;20024;-71
2021/07/01 10:42:52;;;;;;;4.78;1.30;;;;;;;;;;5093422;28;20136;-70
2021/07/01 10:45:18;;;;;;;11.13;2.40;;;;;;;;;;5093657;28;20040;-70
2021/07/01 10:47:44;;;;;;;9.93;2.17;;;;;;;;;;5093523;28;20103;-70
2021/07/01 10:50:20;;;;;;;9.90;2.17;;;;;;;;;;5093500;28;20032;-71
2021/07/01 10:52:46;;;;;;;8.05;1.77;;;;;;;;;;5091840;28;20961;-70
2021/07/01 10:55:13;;;;;;;7.50;1.95;;;;;;;;;;5093604;28;20103;-70
2021/07/01 10:57:51;;;;;;;3.88;1.30;;;;;;;;;;5093230;28;20436;-70
2021/07/01 11:00:17;;;;;;;3.78;1.30;;;;;;;;;;5093264;28;20031;-70
2021/07/01 11:02:49;;;;;;;11.50;1.50;;;;;;;;;;5093002;28;20043;-70
2021/07/01 11:05:15;;;;;;;;;;;;;;;;;;5092339;28;20431;-70
2021/07/01 11:07:45;;;;;;;6.20;1.38;;;;;;;;;;5093127;28;19944;-71
2021/07/01 11:10:11;;;;;;;7.95;1.80;;;;;;;;;;5093285;28;20032;-71
2021/07/01 11:12:45;;;;;;;6.93;1.90;;;;;;;;;;5093082;28;20027;-70
2021/07/01 11:15:11;;;;;;;8.00;1.60;;;;;;;;;;5092850;28;20047;-70
2021/07/01 11:17:42;;;;;;;9.27;1.58;;;;;;;;;;5093392;28;20472;-71
2021/07/01 11:20:26;;;;;;;6.88;1.40;;;;;;;;;;5093214;28;20062;-70
2021/07/01 11:22:53;;;;;;;9.40;1.63;;;;;;;;;;5092996;28;20024;-71
2021/07/01 11:25:24;;;;;;;5.10;1.45;;;;;;;;;;5092895;28;20040;-72
2021/07/01 11:27:50;;;;;;;8.32;1.20;;;;;;;;;;5088961;28;20049;-70
2021/07/01 11:30:26;;;;;;;4.43;1.10;;;;;;;;;;5090233;28;20023;-71
2021/07/01 11:33:11;;;;;;;8.82;1.45;;;;;;;;;;5091173;28;20020;-69
2021/07/01 11:35:37;;;;;;;12.23;1.52;;;;;;;;;;5092534;28;20028;-70
2021/07/01 11:38:03;;;;;;;14.98;2.10;;;;;;;;;;5092730;28;20034;-72
2021/07/01 11:40:29;;;;;;;13.75;1.70;;;;;;;;;;5092856;28;20073;-72
2021/07/01 11:42:56;;;;;;;9.75;1.85;;;;;;;;;;5091874;28;20801;-69
2021/07/01 11:45:22;;;;;;;5.32;1.48;;;;;;;;;;5089666;28;20040;-71
2021/07/01 11:47:50;;;;;;;6.97;1.27;;;;;;;;;;5090138;28;20400;-70
2021/07/01 11:50:16;;;;;;;6.40;1.38;;;;;;;;;;5092860;28;20095;-70
2021/07/01 11:52:43;;;;;;;6.63;1.38;;;;;;;;;;5092851;28;20031;-72
2021/07/01 11:55:10;;;;;;;4.45;1.00;;;;;;;;;;5092758;28;20013;-69
2021/07/01 11:57:37;;;;;;;7.43;1.58;;;;;;;;;;5092979;28;20046;-69
2021/07/01 12:00:04;;;;;;;5.00;1.30;;;;;;;;;;5093390;28;20020;-70
2021/07/01 12:02:30;;;;;;;4.15;1.50;;;;;;;;;;5096475;28;20050;-70
2021/07/01 12:04:56;;;;;;;6.07;1.38;;;;;;;;;;5096253;28;20038;-70
2021/07/01 12:07:23;;;;;;;10.88;1.58;;;;;;;;;;5096281;28;20480;-69
2021/07/01 12:09:49;;;;;;;7.25;1.40;;;;;;;;;;5096224;28;20383;-69
2021/07/01 12:12:20;;;;;;;6.72;1.40;;;;;;;;;;5096347;28;20034;-69
2021/07/01 12:14:49;;;;;;;8.80;1.60;;;;;;;;;;5096323;28;20458;-69
2021/07/01 12:17:48;;;;;;;4.95;1.10;;;;;;;;;;5096154;28;20020;-69
2021/07/01 12:20:26;;;;;;;9.00;1.50;;;;;;;;;;5095797;28;20026;-70
2021/07/01 12:22:53;;;;;;;8.38;1.25;;;;;;;;;;5095890;28;20015;-70
2021/07/01 12:25:25;;;;;;;8.70;1.38;;;;;;;;;;5096087;28;20034;-69
2021/07/01 12:27:51;;;;;;;;;;;;;;;;;;5096522;28;20035;-69
2021/07/01 12:30:17;;;;;;;6.20;1.42;;;;;;;;;;5095959;28;19904;-69
2021/07/01 12:32:43;;;;;;;5.80;1.40;;;;;;;;;;5095874;28;20024;-69
2021/07/01 12:35:28;;;;;;;7.28;1.40;;;;;;;;;;5095813;28;20536;-69
2021/07/01 12:38:08;;;;;;;5.75;1.30;;;;;;;;;;5095930;28;20488;-69
2021/07/01 12:40:34;;;;;;;4.68;1.27;;;;;;;;;;5095743;28;20020;-68
2021/07/01 12:43:00;;;;;;;15.25;1.52;;;;;;;;;;5095756;28;20056;-68
2021/07/01 12:45:33;;;;;;;7.13;1.45;;;;;;;;;;5095876;28;20071;-69
2021/07/01 12:47:59;;;;;;;9.68;1.08;;;;;;;;;;5093848;28;20480;-70
2021/07/01 12:50:29;;;;;;;5.82;1.17;;;;;;;;;;5094750;28;20024;-69
2021/07/01 12:52:55;;;;;;;5.90;1.00;;;;;;;;;;5095052;28;20020;-71
2021/07/01 12:55:22;;;;;;;4.63;1.20;;;;;;;;;;5094853;28;20023;-69
2021/07/01 12:57:48;;;;;;;5.80;1.23;;;;;;;;;;5094826;28;20032;-70
2021/07/01 13:00:15;;;;;;;6.40;1.10;;;;;;;;;;5094692;28;20024;-71
2021/07/01 13:02:41;;;;;;;5.20;1.17;;;;;;;;;;5094617;28;20069;-70
2021/07/01 13:05:09;;;;;;;7.53;1.33;;;;;;;;;;5094588;28;20066;-72
2021/07/01 13:07:36;;;;;;;3.83;1.30;;;;;;;;;;5093464;28;20387;-69
2021/07/01 13:10:08;;;;;;;8.35;1.25;;;;;;;;;;5095057;28;20112;-68
2021/07/01 13:12:37;;;;;;;5.47;1.02;;;;;;;;;;5094847;28;20036;-69
2021/07/01 13:15:08;;;;;;;2.88;1.08;;;;;;;;;;5094640;28;20067;-69
2021/07/01 13:17:34;;;;;;;8.17;1.07;;;;;;;;;;5094875;28;20445;-69
2021/07/01 13:20:01;;;;;;;3.67;1.02;;;;;;;;;;5094540;28;20032;-68
2021/07/01 13:22:31;;;;;;;3.60;1.00;;;;;;;;;;5094515;28;20687;-69
2021/07/01 13:25:00;;;;;;;4.80;0.90;;;;;;;;;;5094491;28;20047;-69
2021/07/01 13:27:33;;;;;;;3.67;1.00;;;;;;;;;;5094650;28;20035;-69
2021/07/01 13:29:59;;;;;;;3.85;0.98;;;;;;;;;;5094231;28;20031;-69
2021/07/01 13:32:25;;;;;;;2.85;0.80;;;;;;;;;;5094205;28;20044;-68
2021/07/01 13:34:52;;;;;;;3.80;0.82;;;;;;;;;;5094208;28;20107;-70
2021/07/01 13:37:26;;;;;;;2.40;0.90;;;;;;;;;;5094287;28;20031;-69
2021/07/01 13:39:53;;;;;;;1.70;0.80;;;;;;;;;;5094627;28;20097;-69
2021/07/01 13:42:23;;;;;;;3.58;1.00;;;;;;;;;;5094571;28;20064;-68
2021/07/01 13:45:01;;;;;;;4.55;0.70;;;;;;;;;;5093868;28;20072;-69
2021/07/01 13:47:28;;;;;;;5.22;0.63;;;;;;;;;;5093866;28;20025;-69
2021/07/01 13:49:54;;;;;;;2.80;0.70;;;;;;;;;;5094090;28;20099;-69
2021/07/01 13:52:21;;;;;;;2.25;0.70;;;;;;;;;;5093783;28;20077;-69
2021/07/01 13:54:47;;;;;;;4.72;0.70;;;;;;;;;;5094102;28;20034;-68
2021/07/01 13:57:13;;;;;;;3.58;0.70;;;;;;;;;;5093926;28;20506;-68
2021/07/01 13:59:39;;;;;;;3.53;0.60;;;;;;;;;;5093504;28;20106;-69
2021/07/01 14:02:21;;;;;;;7.85;0.90;;;;;;;;;;5094063;28;20024;-70
2021/07/01 14:04:47;;;;;;;6.38;1.20;;;;;;;;;;5093842;28;20027;-71
2021/07/01 14:07:13;;;;;;;2.80;0.70;;;;;;;;;;5093584;28;20388;-69
2021/07/01 14:09:39;;;;;;;3.63;0.60;;;;;;;;;;5093062;28;20028;-68
2021/07/01 14:12:05;;;;;;;2.92;0.70;;;;;;;;;;5093546;28;20020;-69
2021/07/01 14:14:32;;;;;;;2.40;0.80;;;;;;;;;;5093304;28;20048;-69
2021/07/01 14:16:58;;;;;;;3.85;0.90;;;;;;;;;;5092239;28;20042;-69
2021/07/01 14:19:24;;;;;;;1.65;0.73;;;;;;;;;;5093122;28;20085;-69
2021/07/01 14:21:51;;;;;;;2.20;0.70;;;;;;;;;;5093382;28;20024;-68
2021/07/01 14:24:24;;;;;;;2.95;0.70;;;;;;;;;;5092901;28;20036;-69
2021/07/01 14:26:51;;;;;;;2.35;0.57;;;;;;;;;;5093122;28;20024;-69
2021/07/01 14:29:18;;;;;;;3.15;0.60;;;;;;;;;;5093501;28;20379;-69
2021/07/01 14:31:44;;;;;;;5.95;0.88;;;;;;;;;;5092861;28;20031;-69
2021/07/01 14:34:10;;;;;;;3.55;0.47;;;;;;;;;;5093221;28;20028;-68
2021/07/01 14:36:47;;;;;;;1.75;0.70;;;;;;;;;;5093169;28;20077;-69
2021/07/01 14:39:13;;;;;;;3.03;0.70;;;;;;;;;;5092638;28;20098;-69
2021/07/01 14:41:40;;;;;;;0.70;0.55;;;;;;;;;;5091903;28;20024;-73
2021/07/01 14:44:10;;;;;;;1.30;0.70;;;;;;;;;;5092770;28;20035;-70
2021/07/01 14:46:41;;;;;;;1.60;0.52;;;;;;;;;;5093289;28;20380;-70
2021/07/01 14:49:13;;;;;;;0.88;0.50;;;;;;;;;;5092708;28;20089;-68
2021/07/01 14:51:45;;;;;;;2.20;0.70;;;;;;;;;;5092676;28;20039;-70
2021/07/01 14:54:13;;;;;;;6.07;0.65;;;;;;;;;;5072597;28;20024;-71
2021/07/01 14:56:40;;;;;;;1.33;0.70;;;;;;;;;;5073116;28;20036;-69
2021/07/01 14:59:06;;;;;;;1.90;0.68;;;;;;;;;;5072958;28;20020;-73
2021/07/01 15:01:33;;;;;;;2.15;0.57;;;;;;;;;;5072746;28;20036;-70
2021/07/01 15:04:00;;;;;;;1.70;0.70;;;;;;;;;;5072395;28;20029;-71
2021/07/01 15:06:32;;;;;;;3.95;0.80;;;;;;;;;;5072120;28;20028;-70
2021/07/01 15:08:57;;;;;;;;;;;;;;;;;;5072444;28;20036;-73
2021/07/01 15:11:25;;;;;;;2.72;0.60;;;;;;;;;;5072464;28;19905;-69
2021/07/01 15:14:08;;;;;;;4.75;0.60;;;;;;;;;;5080445;28;20040;-69
2021/07/01 15:16:34;;;;;;;1.13;0.30;;;;;;;;;;5092412;28;20030;-69
2021/07/01 15:19:00;;;;;;;1.13;0.50;;;;;;;;;;5092130;28;20109;-69
2021/07/01 15:21:26;;;;;;;1.65;0.60;;;;;;;;;;5092418;28;20062;-69
2021/07/01 15:23:53;;;;;;;2.15;0.60;;;;;;;;;;5092371;28;20476;-69
2021/07/01 15:26:19;;;;;;;1.83;0.60;;;;;;;;;;5090301;28;20038;-69
2021/07/01 15:28:45;;;;;;;3.60;0.57;;;;;;;;;;5092289;28;20020;-70